Time;durP1;ratioP1;P1;durP2;ratioP2;P2;SDS_P1;SDS_P2;PMS_P1;PMS_P2;Temp;Humidity;BMP_temperature;BMP_pressure;BME280_temperature;BME280_humidity;BME280_pressure;Samples;Min_cycle;Max_cycle;Signal;HPM_P1;HPM_P2
2022/06/09 00:01:41;;;;;;;20.58;18.48;;;;;;;15.60;100.00;100470.88;4974598;28;20249;-43
2022/06/09 00:04:12;;;;;;;17.35;15.70;;;;;;;15.62;100.00;100471.66;4972249;28;20209;-44
2022/06/09 00:06:56;;;;;;;22.73;20.50;;;;;;;15.48;100.00;100465.41;4974295;28;20205;-45
2022/06/09 00:09:27;;;;;;;17.83;16.23;;;;;;;15.61;100.00;100469.03;4974361;28;20279;-44
2022/06/09 00:11:54;;;;;;;20.73;18.85;;;;;;;15.49;100.00;100465.31;4974019;28;20365;-45
2022/06/09 00:14:20;;;;;;;19.75;17.95;;;;;;;15.51;100.00;100466.09;4973524;28;20210;-45
2022/06/09 00:16:46;;;;;;;17.63;15.93;;;;;;;15.57;100.00;100457.59;4973882;28;20229;-44
2022/06/09 00:19:12;;;;;;;18.60;17.05;;;;;;;15.53;100.00;100463.28;4974167;28;20163;-44
2022/06/09 00:21:37;;;;;;;21.02;18.98;;;;;;;15.38;100.00;100459.75;4974101;28;20217;-45
2022/06/09 00:24:04;;;;;;;21.50;19.40;;;;;;;15.32;100.00;100462.84;4973068;28;20654;-47
2022/06/09 00:26:29;;;;;;;20.45;18.60;;;;;;;15.24;100.00;100466.91;4973939;28;20190;-47
2022/06/09 00:28:55;;;;;;;17.05;15.52;;;;;;;15.44;100.00;100462.06;4973434;28;20229;-47
2022/06/09 00:31:21;;;;;;;19.00;17.10;;;;;;;15.43;100.00;100465.72;4974113;28;20520;-46
2022/06/09 00:33:47;;;;;;;19.60;17.80;;;;;;;15.31;100.00;100461.13;4973048;28;20209;-47
2022/06/09 00:36:13;;;;;;;17.75;16.15;;;;;;;15.45;100.00;100469.19;4973582;28;20186;-48
2022/06/09 00:38:39;;;;;;;18.75;16.95;;;;;;;15.40;100.00;100464.06;4972336;28;20538;-46
2022/06/09 00:41:05;;;;;;;19.48;17.67;;;;;;;15.29;100.00;100457.66;4973044;28;20640;-47
2022/06/09 00:43:31;;;;;;;21.75;19.75;;;;;;;15.15;100.00;100455.81;4972650;28;20269;-48
2022/06/09 00:46:13;;;;;;;21.83;19.83;;;;;;;15.12;100.00;100456.00;4972920;28;20194;-47
2022/06/09 00:48:47;;;;;;;21.70;19.58;;;;;;;15.13;100.00;100453.22;4972750;28;20233;-49
2022/06/09 00:51:32;;;;;;;21.92;19.80;;;;;;;15.12;100.00;100446.06;4973463;28;20236;-47
2022/06/09 00:54:04;;;;;;;18.33;16.60;;;;;;;15.23;100.00;100456.19;4972430;28;20260;-48
2022/06/09 00:56:32;;;;;;;18.75;17.13;;;;;;;15.29;100.00;100447.72;4973297;28;20246;-49
2022/06/09 00:58:58;;;;;;;21.27;19.17;;;;;;;15.32;100.00;100449.34;4973069;28;20661;-48
2022/06/09 01:01:24;;;;;;;22.80;20.70;;;;;;;15.31;100.00;100450.31;4973265;28;20528;-47
2022/06/09 01:04:01;;;;;;;22.98;20.90;;;;;;;15.32;100.00;100452.91;4972578;28;20572;-47
2022/06/09 01:06:31;;;;;;;19.20;17.50;;;;;;;15.36;100.00;100451.75;4972810;28;20178;-46
2022/06/09 01:09:10;;;;;;;18.77;16.90;;;;;;;15.36;100.00;100456.28;4973016;28;20268;-47
2022/06/09 01:11:37;;;;;;;18.08;16.27;;;;;;;15.39;100.00;100458.75;4981260;28;20213;-47
2022/06/09 01:14:03;;;;;;;17.40;15.75;;;;;;;15.32;100.00;100452.03;4983324;28;20211;-48
2022/06/09 01:16:48;;;;;;;18.92;17.23;;;;;;;15.36;100.00;100451.75;4992175;28;20195;-48
2022/06/09 01:19:50;;;;;;;16.52;15.02;;;;;;;15.39;100.00;100453.38;4992184;28;20182;-48
2022/06/09 01:22:22;;;;;;;15.98;14.35;;;;;;;15.42;100.00;100456.75;4975095;28;20515;-47
2022/06/09 01:25:02;;;;;;;15.48;14.18;;;;;;;15.39;100.00;100453.38;4970625;28;20230;-46
2022/06/09 01:27:40;;;;;;;15.93;14.52;;;;;;;15.43;100.00;100461.16;4972737;28;20166;-47
2022/06/09 01:30:20;;;;;;;21.08;19.17;;;;;;;15.33;100.00;100464.59;4972081;28;20206;-45
2022/06/09 01:32:58;;;;;;;21.95;19.88;;;;;;;15.17;100.00;100462.81;4972134;28;20202;-46
2022/06/09 01:35:31;;;;;;;22.35;20.23;;;;;;;15.10;100.00;100457.94;4972101;28;20205;-46
2022/06/09 01:37:59;;;;;;;23.15;20.85;;;;;;;14.93;100.00;100445.50;4972249;28;20517;-48
2022/06/09 01:40:26;;;;;;;20.00;18.00;;;;;;;14.98;100.00;100451.50;4972065;28;20175;-46
2022/06/09 01:42:57;;;;;;;18.35;16.65;;;;;;;15.11;100.00;100444.34;4972312;28;20261;-48
2022/06/09 01:45:31;;;;;;;17.13;15.43;;;;;;;15.18;100.00;100451.09;4971892;28;20206;-47
2022/06/09 01:48:05;;;;;;;16.52;14.80;;;;;;;15.23;100.00;100469.69;4972027;28;20212;-47
2022/06/09 01:50:47;;;;;;;16.33;14.93;;;;;;;15.23;100.00;100457.03;4972494;28;20228;-46
2022/06/09 01:53:18;;;;;;;18.88;17.17;;;;;;;15.13;100.00;100457.72;4971392;28;20562;-47
2022/06/09 01:55:54;;;;;;;21.30;19.10;;;;;;;15.06;100.00;100462.66;4971731;28;20174;-49
2022/06/09 01:58:24;;;;;;;19.83;18.02;;;;;;;15.13;100.00;100463.13;4971820;28;20174;-46
2022/06/09 02:00:53;;;;;;;18.27;16.52;;;;;;;15.18;100.00;100459.19;4972177;28;20233;-47
2022/06/09 02:03:23;;;;;;;18.73;16.83;;;;;;;15.16;100.00;100458.41;4970947;28;20683;-47
2022/06/09 02:05:52;;;;;;;17.80;16.23;;;;;;;15.21;100.00;100458.13;4970022;28;20171;-47
2022/06/09 02:08:21;;;;;;;21.95;19.85;;;;;;;15.08;100.00;100449.94;4971770;28;20511;-48
2022/06/09 02:10:53;;;;;;;21.65;19.65;;;;;;;15.03;100.00;100450.22;4971840;28;20691;-47
2022/06/09 02:13:21;;;;;;;23.00;20.63;;;;;;;14.94;100.00;100455.34;4971014;28;20192;-45
2022/06/09 02:15:52;;;;;;;22.23;20.13;;;;;;;14.98;100.00;100446.97;4972159;28;20297;-42
2022/06/09 02:18:23;;;;;;;22.38;20.17;;;;;;;15.03;100.00;100446.66;4971948;28;20171;-48
2022/06/09 02:20:55;;;;;;;21.40;19.40;;;;;;;15.02;100.00;100455.69;4971776;28;20269;-43
2022/06/09 02:23:21;;;;;;;20.85;18.80;;;;;;;15.03;100.00;100441.25;4971037;28;20634;-41
2022/06/09 02:25:47;;;;;;;21.15;19.17;;;;;;;15.03;100.00;100446.66;4971940;28;20240;-43
2022/06/09 02:28:13;;;;;;;22.83;20.63;;;;;;;15.01;100.00;100456.69;4972021;28;20169;-42
2022/06/09 02:30:39;;;;;;;21.70;19.60;;;;;;;14.88;100.00;100461.13;4971482;28;20552;-44
2022/06/09 02:33:05;;;;;;;20.33;18.48;;;;;;;14.94;100.00;100449.94;4971291;28;20605;-45
2022/06/09 02:35:31;;;;;;;21.50;19.30;;;;;;;14.95;100.00;100457.06;4971389;28;20198;-45
2022/06/09 02:37:56;;;;;;;23.50;21.25;;;;;;;14.89;100.00;100465.53;4971809;28;20629;-46
2022/06/09 02:40:22;;;;;;;22.10;20.00;;;;;;;14.89;100.00;100458.31;4971582;28;20165;-45
2022/06/09 02:42:47;;;;;;;21.17;19.10;;;;;;;14.89;100.00;100454.75;4971202;28;20206;-43
2022/06/09 02:45:15;;;;;;;23.10;20.95;;;;;;;14.81;100.00;100464.19;4971290;28;20611;-45
2022/06/09 02:47:41;;;;;;;20.73;18.83;;;;;;;14.89;100.00;100474.50;4971362;28;20185;-50
2022/06/09 02:50:07;;;;;;;20.55;18.55;;;;;;;14.94;100.00;100463.44;4971685;28;20213;-44
2022/06/09 02:52:32;;;;;;;24.80;22.35;;;;;;;15.01;100.00;100467.47;4970092;28;20205;-44
2022/06/09 02:54:58;;;;;;;22.27;20.08;;;;;;;15.02;100.00;100466.50;4970489;28;20284;-42
2022/06/09 02:57:24;;;;;;;23.25;21.05;;;;;;;15.03;100.00;100455.63;4971339;28;20174;-45
2022/06/09 02:59:51;;;;;;;24.73;22.15;;;;;;;15.03;100.00;100465.56;4970708;28;20645;-45
2022/06/09 03:02:20;;;;;;;22.60;20.15;;;;;;;15.06;100.00;100468.03;4971105;28;20178;-43
2022/06/09 03:04:46;;;;;;;18.52;16.83;;;;;;;15.11;100.00;100467.75;4970279;28;20569;-46
2022/06/09 03:07:12;;;;;;;23.60;21.30;;;;;;;15.08;100.00;100463.41;4970929;28;20253;-42
2022/06/09 03:09:38;;;;;;;22.65;20.55;;;;;;;14.97;100.00;100471.31;4970758;28;20205;-47
2022/06/09 03:12:04;;;;;;;20.95;18.92;;;;;;;15.03;100.00;100476.34;4981799;28;20204;-47
2022/06/09 03:14:29;;;;;;;23.13;21.02;;;;;;;15.04;100.00;100468.16;4989556;28;20197;-42
2022/06/09 03:17:44;;;;;;;24.73;22.35;;;;;;;15.02;100.00;100480.88;4989695;28;20652;-45
2022/06/09 03:20:17;;;;;;;24.58;22.23;;;;;;;14.98;100.00;100487.41;4985799;28;20189;-50
2022/06/09 03:22:43;;;;;;;21.00;19.00;;;;;;;15.01;100.00;100497.16;4989857;28;20169;-48
2022/06/09 03:25:08;;;;;;;22.73;20.55;;;;;;;15.01;100.00;100495.31;4989472;28;20189;-49
2022/06/09 03:27:34;;;;;;;24.77;21.85;;;;;;;14.94;100.00;100499.38;4990072;28;20201;-48
2022/06/09 03:30:01;;;;;;;22.85;20.65;;;;;;;14.93;100.00;100497.59;4984195;28;20212;-42
2022/06/09 03:32:30;;;;;;;21.33;19.33;;;;;;;15.02;100.00;100486.28;4988512;28;20759;-52
2022/06/09 03:34:56;;;;;;;20.83;18.98;;;;;;;14.98;100.00;100497.34;4989064;28;20204;-45
2022/06/09 03:37:23;;;;;;;21.58;19.38;;;;;;;14.98;100.00;100492.81;4989801;28;20173;-45
2022/06/09 03:39:48;;;;;;;19.63;17.77;;;;;;;15.06;100.00;100505.81;4989873;28;20193;-45
2022/06/09 03:42:14;;;;;;;18.20;16.50;;;;;;;15.11;100.00;100492.03;4990017;28;20659;-43
2022/06/09 03:44:40;;;;;;;19.15;17.38;;;;;;;15.11;100.00;100497.44;4989385;28;20197;-44
2022/06/09 03:47:07;;;;;;;20.60;18.63;;;;;;;15.16;100.00;100498.88;4989831;28;20186;-46
2022/06/09 03:49:33;;;;;;;19.05;17.08;;;;;;;15.18;100.00;100496.09;4990209;28;20165;-46
2022/06/09 03:51:58;;;;;;;18.20;16.67;;;;;;;15.26;100.00;100499.16;4989544;28;20204;-43
2022/06/09 03:54:24;;;;;;;18.70;16.90;;;;;;;15.29;100.00;100500.84;4989517;28;20279;-46
2022/06/09 03:56:50;;;;;;;19.52;17.60;;;;;;;15.24;100.00;100510.09;4990325;28;20205;-50
2022/06/09 03:59:15;;;;;;;20.13;18.13;;;;;;;15.25;100.00;100509.09;4989991;28;20185;-45
2022/06/09 04:01:41;;;;;;;19.50;17.70;;;;;;;15.22;100.00;100513.84;4990070;28;20177;-44
2022/06/09 04:04:06;;;;;;;19.85;18.05;;;;;;;15.22;100.00;100501.22;4990706;28;20219;-45
2022/06/09 04:06:33;;;;;;;20.20;18.38;;;;;;;15.24;100.00;100517.31;4993879;28;20534;-48
2022/06/09 04:08:58;;;;;;;17.65;15.93;;;;;;;15.29;100.00;100517.03;4993752;28;20212;-45
2022/06/09 04:11:24;;;;;;;22.30;20.08;;;;;;;15.24;100.00;100517.31;4993290;28;20185;-49
2022/06/09 04:13:50;;;;;;;21.38;19.38;;;;;;;15.20;100.00;100522.03;4993116;28;20229;-44
2022/06/09 04:16:23;;;;;;;20.65;18.65;;;;;;;15.17;100.00;100527.59;4993423;28;20196;-46
2022/06/09 04:18:49;;;;;;;19.35;17.55;;;;;;;15.26;100.00;100523.47;4993683;28;20204;-48
2022/06/09 04:21:15;;;;;;;20.73;18.77;;;;;;;15.11;100.00;100524.41;4984998;28;20268;-46
2022/06/09 04:23:40;;;;;;;17.65;15.95;;;;;;;15.22;100.00;100525.50;4971599;28;20217;-44
2022/06/09 04:26:06;;;;;;;21.70;19.52;;;;;;;15.16;100.00;100517.78;4974134;28;20174;-44
2022/06/09 04:28:31;;;;;;;20.13;18.33;;;;;;;15.13;100.00;100526.06;4973741;28;20265;-46
2022/06/09 04:30:56;;;;;;;19.20;17.50;;;;;;;14.97;100.00;100530.66;4973828;28;20263;-51
2022/06/09 04:33:22;;;;;;;18.73;16.80;;;;;;;15.01;100.00;100522.28;4973256;28;20225;-44
2022/06/09 04:35:47;;;;;;;18.20;16.38;;;;;;;14.93;100.00;100526.41;4973807;28;20254;-45
2022/06/09 04:38:13;;;;;;;17.85;16.02;;;;;;;14.98;100.00;100532.44;4973713;28;20543;-45
2022/06/09 04:40:41;;;;;;;17.25;15.38;;;;;;;15.04;100.00;100534.72;4973422;28;20188;-48
2022/06/09 04:43:10;;;;;;;17.02;15.38;;;;;;;15.13;100.00;100534.19;4973455;28;20253;-45
2022/06/09 04:45:37;;;;;;;17.05;15.45;;;;;;;15.00;100.00;100538.59;4973661;28;20171;-49
2022/06/09 04:48:03;;;;;;;17.80;16.10;;;;;;;14.95;100.00;100538.00;4972834;28;20261;-44
2022/06/09 04:50:29;;;;;;;18.02;16.25;;;;;;;14.91;100.00;100534.63;4973547;28;20205;-44
2022/06/09 04:52:55;;;;;;;19.63;17.73;;;;;;;14.91;100.00;100544.53;4972783;28;20241;-50
2022/06/09 04:55:20;;;;;;;17.17;15.57;;;;;;;14.99;100.00;100539.53;4973304;28;20190;-47
2022/06/09 04:57:46;;;;;;;18.80;16.90;;;;;;;14.99;100.00;100542.25;4973379;28;20178;-47
2022/06/09 05:00:14;;;;;;;18.63;16.45;;;;;;;15.01;100.00;100538.47;4972998;28;20426;-45
2022/06/09 05:02:39;;;;;;;16.67;14.98;;;;;;;15.19;100.00;100543.69;4973252;28;20162;-45
2022/06/09 05:05:07;;;;;;;18.08;16.17;;;;;;;15.24;100.00;100542.47;4972633;28;20553;-41
2022/06/09 05:07:32;;;;;;;16.35;14.85;;;;;;;15.35;100.00;100546.31;4972942;28;20237;-47
2022/06/09 05:09:58;;;;;;;16.85;15.10;;;;;;;15.38;100.00;100538.03;4973425;28;20158;-42
2022/06/09 05:12:24;;;;;;;14.85;13.35;;;;;;;15.50;100.00;100544.47;4972502;28;20630;-43
2022/06/09 05:14:51;;;;;;;15.25;13.80;;;;;;;15.45;100.00;100547.47;4972341;28;20342;-43
2022/06/09 05:17:18;;;;;;;15.18;13.68;;;;;;;15.56;100.00;100539.56;4972212;28;20182;-45
2022/06/09 05:19:45;;;;;;;14.55;13.15;;;;;;;15.45;100.00;100542.06;4979902;28;20194;-42
2022/06/09 05:22:11;;;;;;;12.98;11.68;;;;;;;15.36;100.00;100550.75;4985877;28;20312;-44
2022/06/09 05:24:37;;;;;;;11.93;10.70;;;;;;;15.48;100.00;100549.09;4991463;28;20288;-45
2022/06/09 05:27:03;;;;;;;12.75;11.45;;;;;;;15.42;100.00;100548.53;4992307;28;20889;-43
2022/06/09 05:29:29;;;;;;;11.95;10.90;;;;;;;15.46;100.00;100557.31;4992073;28;20237;-42
2022/06/09 05:31:54;;;;;;;11.60;10.52;;;;;;;15.45;100.00;100563.66;4992453;28;20208;-44
2022/06/09 05:34:20;;;;;;;11.45;10.00;;;;;;;15.38;100.00;100560.50;4989467;28;20201;-46
2022/06/09 05:36:45;;;;;;;10.45;9.43;;;;;;;15.35;100.00;100571.50;4991427;28;20181;-47
2022/06/09 05:44:51;;;;;;;8.95;7.72;;;;;;;15.48;100.00;100570.69;4991306;28;20720;-43
2022/06/09 05:47:21;;;;;;;10.68;7.72;;;;;;;15.70;100.00;100568.41;4991705;28;20208;-43
2022/06/09 05:49:51;;;;;;;9.43;8.45;;;;;;;15.54;100.00;100565.78;4985687;28;20197;-45
2022/06/09 05:52:19;;;;;;;9.48;8.48;;;;;;;15.67;100.00;100573.97;4983155;28;20194;-45
2022/06/09 05:54:45;;;;;;;9.10;7.43;;;;;;;15.88;100.00;100577.19;4991026;28;20498;-44
2022/06/09 05:57:10;;;;;;;7.43;6.68;;;;;;;15.89;100.00;100580.75;4991777;28;20224;-46
2022/06/09 05:59:37;;;;;;;6.97;6.28;;;;;;;15.99;100.00;100585.47;4991109;28;20173;-42
2022/06/09 06:02:03;;;;;;;5.85;5.32;;;;;;;15.98;100.00;100588.25;4991634;28;20818;-43
2022/06/09 06:04:29;;;;;;;6.60;5.38;;;;;;;15.95;100.00;100594.72;4990507;28;20189;-44
2022/06/09 06:06:55;;;;;;;5.57;4.93;;;;;;;16.20;100.00;100594.03;4991269;28;20244;-46
2022/06/09 06:09:23;;;;;;;5.22;4.85;;;;;;;16.30;99.96;100602.38;4991444;28;20594;-43
2022/06/09 06:11:50;;;;;;;5.50;3.95;;;;;;;16.39;98.72;100607.16;4990861;28;20185;-47
2022/06/09 06:14:17;;;;;;;4.43;4.03;;;;;;;16.35;97.26;100612.88;4990886;28;20736;-45
2022/06/09 06:16:42;;;;;;;4.35;3.95;;;;;;;16.27;96.75;100600.75;4991195;28;20244;-43
2022/06/09 06:19:12;;;;;;;4.55;4.15;;;;;;;16.47;96.80;100609.38;4991004;28;20594;-45
2022/06/09 06:21:39;;;;;;;6.32;3.80;;;;;;;16.48;96.27;100605.69;4979160;28;20182;-46
2022/06/09 06:24:06;;;;;;;4.10;3.70;;;;;;;16.33;95.42;100615.69;4971012;28;20246;-47
2022/06/09 06:26:32;;;;;;;4.00;3.58;;;;;;;16.32;95.20;100624.78;4974618;28;20608;-46
2022/06/09 06:28:58;;;;;;;3.90;3.53;;;;;;;16.35;95.94;100621.00;4974768;28;20178;-47
2022/06/09 06:31:24;;;;;;;5.32;3.85;;;;;;;16.10;96.59;100628.00;4971497;28;20190;-45
2022/06/09 06:33:49;;;;;;;3.63;3.25;;;;;;;16.16;97.30;100619.50;4970392;28;20587;-47
2022/06/09 06:36:15;;;;;;;6.10;4.13;;;;;;;15.96;97.69;100626.19;4971327;28;20705;-46
2022/06/09 06:38:41;;;;;;;4.22;3.83;;;;;;;16.03;98.54;100637.50;4987583;28;20244;-45
2022/06/09 06:41:10;;;;;;;6.03;4.88;;;;;;;16.04;98.10;100634.66;4990731;28;20181;-46
2022/06/09 06:43:36;;;;;;;5.43;4.93;;;;;;;16.05;97.95;100640.97;4990137;28;20668;-56
2022/06/09 06:46:02;;;;;;;6.40;5.68;;;;;;;16.42;97.42;100643.94;4990734;28;20275;-47
2022/06/09 06:48:29;;;;;;;6.82;6.13;;;;;;;16.86;96.18;100638.34;4989036;28;20243;-46
2022/06/09 06:50:54;;;;;;;6.00;5.45;;;;;;;17.44;93.46;100636.16;4989070;28;20268;-45
2022/06/09 06:53:20;;;;;;;5.95;5.45;;;;;;;17.85;91.24;100635.09;4989771;28;20304;-47
2022/06/09 06:55:45;;;;;;;6.43;5.43;;;;;;;17.78;87.71;100646.47;4990864;28;20165;-46
2022/06/09 06:58:11;;;;;;;5.55;5.05;;;;;;;17.78;87.66;100643.75;4990431;28;20181;-45
2022/06/09 07:00:37;;;;;;;5.13;4.68;;;;;;;17.46;87.29;100642.31;4990267;28;20196;-46
2022/06/09 07:03:03;;;;;;;6.30;5.15;;;;;;;17.36;87.85;100662.03;4989551;28;20176;-44
2022/06/09 07:05:29;;;;;;;5.28;4.80;;;;;;;16.99;88.49;100654.63;4988919;28;20205;-46
2022/06/09 07:07:56;;;;;;;5.38;4.88;;;;;;;16.84;89.23;100656.50;4990461;28;20671;-47
2022/06/09 07:10:22;;;;;;;6.00;4.40;;;;;;;16.91;91.73;100662.38;4990423;28;20166;-46
2022/06/09 07:12:48;;;;;;;4.90;4.40;;;;;;;16.92;91.82;100655.97;4990153;28;20513;-48
2022/06/09 07:15:15;;;;;;;5.30;4.80;;;;;;;16.81;92.12;100666.66;4990062;28;20208;-46
2022/06/09 07:17:41;;;;;;;7.82;7.20;;;;;;;16.76;93.15;100666.06;4990559;28;20185;-46
2022/06/09 07:20:10;;;;;;;6.55;6.13;;;;;;;16.50;94.24;100668.66;4990234;28;20285;-48
2022/06/09 07:22:36;;;;;;;6.25;5.63;;;;;;;16.57;94.43;100669.13;4970586;28;20166;-46
2022/06/09 07:25:03;;;;;;;6.47;5.18;;;;;;;16.36;94.19;100676.81;4970200;28;20210;-46
2022/06/09 07:27:28;;;;;;;5.15;4.70;;;;;;;16.59;94.03;100673.47;4969804;28;20172;-46
2022/06/09 07:29:54;;;;;;;4.55;4.15;;;;;;;16.79;93.29;100669.47;4970630;28;20186;-45
2022/06/09 07:32:20;;;;;;;3.97;3.63;;;;;;;17.83;91.89;100672.28;4970766;28;20228;-46
2022/06/09 07:34:45;;;;;;;3.70;3.40;;;;;;;18.63;89.42;100661.03;4970440;28;20240;-46
2022/06/09 07:37:12;;;;;;;3.65;3.35;;;;;;;19.18;85.69;100664.16;4970844;28;20182;-45
2022/06/09 07:39:37;;;;;;;4.00;3.35;;;;;;;19.11;82.03;100668.31;4973083;28;20749;-46
2022/06/09 07:42:03;;;;;;;3.83;3.53;;;;;;;18.82;81.87;100678.69;4974444;28;20314;-45
2022/06/09 07:44:29;;;;;;;3.60;3.30;;;;;;;18.67;80.87;100684.25;4973550;28;20277;-45
2022/06/09 07:46:54;;;;;;;3.40;3.10;;;;;;;19.14;80.76;100679.81;4974669;28;20336;-45
2022/06/09 07:49:20;;;;;;;3.80;3.40;;;;;;;19.06;79.08;100667.81;4974356;28;20174;-46
2022/06/09 07:51:46;;;;;;;3.70;2.95;;;;;;;19.47;79.68;100678.19;4974777;28;20375;-47
2022/06/09 07:54:11;;;;;;;4.80;2.85;;;;;;;19.70;77.75;100672.81;4974019;28;20194;-45
2022/06/09 07:56:37;;;;;;;3.25;2.70;;;;;;;19.41;78.08;100681.38;4974078;28;20193;-45
2022/06/09 07:59:08;;;;;;;4.18;2.70;;;;;;;19.77;78.63;100684.97;4974002;28;20622;-46
2022/06/09 08:01:34;;;;;;;3.30;3.00;;;;;;;19.44;76.36;100697.47;4974214;28;20537;-44
2022/06/09 08:04:00;;;;;;;3.17;2.88;;;;;;;19.82;77.70;100692.75;4972640;28;20185;-46
2022/06/09 08:06:26;;;;;;;4.60;3.65;;;;;;;18.74;79.87;100700.97;4974227;28;20170;-46
2022/06/09 08:08:55;;;;;;;5.65;3.63;;;;;;;18.59;83.25;100707.53;4974019;28;20190;-46
2022/06/09 08:11:21;;;;;;;4.30;3.50;;;;;;;18.38;84.24;100713.53;4974233;28;20229;-48
2022/06/09 08:13:47;;;;;;;6.55;3.28;;;;;;;17.98;84.75;100716.41;4972961;28;20201;-48
2022/06/09 08:16:12;;;;;;;3.58;3.00;;;;;;;17.85;85.78;100715.53;4974109;28;20233;-46
2022/06/09 08:18:38;;;;;;;3.50;2.63;;;;;;;17.86;85.22;100719.97;4977478;28;20171;-45
2022/06/09 08:21:04;;;;;;;2.58;2.30;;;;;;;17.91;86.95;100721.38;4985509;28;20189;-47
2022/06/09 08:23:30;;;;;;;2.63;2.30;;;;;;;17.98;86.48;100724.53;4973695;28;20166;-48
2022/06/09 08:26:03;;;;;;;3.58;3.00;;;;;;;17.94;85.13;100719.44;4972353;28;20252;-48
2022/06/09 08:28:29;;;;;;;2.50;2.30;;;;;;;18.41;83.79;100723.28;4973669;28;20170;-45
2022/06/09 08:30:56;;;;;;;3.85;2.20;;;;;;;18.60;84.57;100718.25;4973944;28;20266;-47
2022/06/09 08:33:24;;;;;;;2.40;2.20;;;;;;;18.49;83.75;100726.31;4972801;28;20201;-47
2022/06/09 08:35:50;;;;;;;4.72;2.53;;;;;;;18.57;83.36;100725.75;4973478;28;20315;-46
2022/06/09 08:38:16;;;;;;;3.97;2.70;;;;;;;18.00;83.13;100729.84;4973640;28;20300;-46
2022/06/09 08:41:23;;;;;;;2.53;2.33;;;;;;;17.89;83.58;100741.47;4979660;28;20197;-48
2022/06/09 08:44:07;;;;;;;2.30;2.10;;;;;;;17.87;85.38;100746.97;4992249;28;20201;-46
2022/06/09 08:46:42;;;;;;;4.65;2.25;;;;;;;17.76;87.09;100754.09;4992462;28;20189;-48
2022/06/09 08:49:41;;;;;;;2.50;2.30;;;;;;;17.61;86.34;100761.44;4992129;28;20664;-47
2022/06/09 08:52:22;;;;;;;2.80;2.10;;;;;;;17.18;87.06;100781.44;4991509;28;20714;-47
2022/06/09 08:54:50;;;;;;;1.85;1.30;;;;;;;16.86;87.21;100779.06;4992427;28;20212;-46
2022/06/09 08:57:22;;;;;;;1.40;1.35;;;;;;;16.68;87.82;100781.09;4992816;28;20803;-47
2022/06/09 08:59:55;;;;;;;2.15;1.70;;;;;;;16.19;89.88;100788.72;4991878;28;20928;-45
2022/06/09 09:02:40;;;;;;;2.05;1.95;;;;;;;15.92;93.31;100794.88;4991990;28;20693;-47
2022/06/09 09:05:31;;;;;;;4.15;2.58;;;;;;;15.98;95.26;100799.91;4991531;28;20201;-47
2022/06/09 09:08:00;;;;;;;4.82;2.90;;;;;;;15.99;97.54;100807.06;4992121;28;20192;-47
2022/06/09 09:10:46;;;;;;;3.47;3.05;;;;;;;15.98;98.40;100807.13;4992510;28;20158;-46
2022/06/09 09:13:14;;;;;;;5.00;3.58;;;;;;;15.57;99.43;100814.06;4991764;28;20205;-47
2022/06/09 09:15:46;;;;;;;3.50;3.20;;;;;;;15.53;100.00;100820.59;4992282;28;20184;-47
2022/06/09 09:18:16;;;;;;;4.10;3.70;;;;;;;15.64;100.00;100825.34;4992083;28;20177;-46
2022/06/09 09:21:12;;;;;;;4.22;3.15;;;;;;;15.52;100.00;100835.03;4992450;28;20290;-45
2022/06/09 09:23:53;;;;;;;5.53;3.40;;;;;;;15.65;100.00;100832.50;4991545;28;20193;-46
2022/06/09 09:26:44;;;;;;;4.97;3.70;;;;;;;15.71;100.00;100842.97;4992200;28;20316;-46
2022/06/09 09:29:16;;;;;;;3.83;3.45;;;;;;;15.70;100.00;100840.31;4990622;28;20684;-45
2022/06/09 09:31:56;;;;;;;6.22;2.85;;;;;;;15.96;100.00;100841.50;4992365;28;20664;-47
2022/06/09 09:34:28;;;;;;;3.47;3.17;;;;;;;15.87;100.00;100840.22;4991853;28;20213;-46
2022/06/09 09:37:00;;;;;;;3.08;2.85;;;;;;;15.89;100.00;100857.19;4991709;28;20161;-46
2022/06/09 09:39:42;;;;;;;2.78;2.58;;;;;;;15.68;100.00;100856.63;4990915;28;20688;-47
2022/06/09 09:42:16;;;;;;;4.15;3.20;;;;;;;15.95;100.00;100851.44;4991727;28;20548;-46
2022/06/09 09:44:58;;;;;;;3.38;2.95;;;;;;;16.11;100.00;100856.78;4991263;28;20258;-46
2022/06/09 09:47:27;;;;;;;3.42;3.13;;;;;;;16.34;100.00;100854.50;4991529;28;20172;-47
2022/06/09 09:49:57;;;;;;;3.30;3.00;;;;;;;16.42;100.00;100857.59;4991578;28;20256;-47
2022/06/09 09:52:39;;;;;;;3.78;2.47;;;;;;;16.53;100.00;100867.72;4991517;28;20197;-47
2022/06/09 09:55:25;;;;;;;2.92;2.35;;;;;;;16.66;100.00;100866.00;4990964;28;20213;-46
2022/06/09 09:58:09;;;;;;;2.50;2.10;;;;;;;16.85;98.27;100871.16;4991308;28;20591;-47
2022/06/09 10:00:35;;;;;;;2.17;2.08;;;;;;;16.84;96.84;100866.72;4989762;28;20287;-44
2022/06/09 10:08:46;;;;;;;2.70;2.08;;;;;;;16.99;97.70;100881.06;4990990;28;20275;-45
2022/06/09 10:14:33;;;;;;;3.75;2.63;;;;;;;17.37;98.04;100881.31;4990569;28;20240;-46
2022/06/09 10:17:01;;;;;;;2.30;2.20;;;;;;;17.73;96.83;100887.06;4990837;28;20181;-45
2022/06/09 10:19:31;;;;;;;2.22;2.03;;;;;;;18.00;94.20;100884.38;4991105;28;20268;-46
2022/06/09 10:22:15;;;;;;;4.13;2.00;;;;;;;18.58;91.74;100880.28;4991147;28;20410;-45
2022/06/09 10:25:08;;;;;;;2.33;1.70;;;;;;;19.44;87.16;100870.47;4990384;28;20205;-46
2022/06/09 10:27:37;;;;;;;3.00;1.80;;;;;;;19.53;83.65;100876.09;4991263;28;20177;-45
2022/06/09 10:30:16;;;;;;;2.95;1.98;;;;;;;19.01;84.89;100882.69;4990476;28;20197;-45
2022/06/09 10:33:00;;;;;;;3.17;1.77;;;;;;;19.41;83.51;100882.44;4991032;28;20193;-45
2022/06/09 10:35:35;;;;;;;1.92;1.75;;;;;;;19.20;81.07;100892.19;4990742;28;20193;-46
2022/06/09 10:38:10;;;;;;;1.75;1.60;;;;;;;19.34;82.00;100884.75;4990810;28;20640;-47
2022/06/09 10:40:44;;;;;;;1.77;1.55;;;;;;;18.88;82.00;100901.69;4990800;28;20169;-44
2022/06/09 10:43:37;;;;;;;1.80;1.70;;;;;;;18.36;84.58;100901.78;4990070;28;20157;-45
2022/06/09 10:46:18;;;;;;;2.05;1.50;;;;;;;18.23;86.46;100901.75;4990686;28;20174;-46
2022/06/09 10:57:46;;;;;;;3.22;1.50;;;;;;;17.59;87.18;100912.41;4990759;28;20204;-46
2022/06/09 11:00:21;;;;;;;2.15;1.70;;;;;;;17.87;86.85;100917.72;4990197;28;20256;-46
2022/06/09 11:02:50;;;;;;;1.88;1.10;;;;;;;18.18;84.75;100921.06;4989426;28;20188;-46
2022/06/09 11:05:20;;;;;;;1.20;0.98;;;;;;;18.21;82.87;100925.41;4981346;28;20240;-44
2022/06/09 11:07:53;;;;;;;1.67;0.90;;;;;;;18.28;81.14;100935.75;4974576;28;20216;-46
2022/06/09 11:10:57;;;;;;;0.80;0.80;;;;;;;18.03;81.41;100933.81;4973063;28;20181;-44
2022/06/09 11:13:36;;;;;;;1.38;1.27;;;;;;;18.01;81.94;100934.91;4974501;28;20221;-43
2022/06/09 11:16:07;;;;;;;2.25;1.20;;;;;;;17.83;82.87;100943.31;4975086;28;20159;-45
2022/06/09 11:18:39;;;;;;;1.13;1.02;;;;;;;17.95;82.48;100938.03;4974953;28;20210;-45
2022/06/09 11:21:19;;;;;;;2.55;1.33;;;;;;;18.00;81.98;100938.59;4982094;28;20263;-47
2022/06/09 11:24:26;;;;;;;2.40;1.00;;;;;;;17.94;82.46;100933.59;4993593;28;20224;-45
2022/06/09 11:27:04;;;;;;;2.60;2.20;;;;;;;17.77;83.12;100942.81;4994540;28;20181;-46
2022/06/09 11:29:54;;;;;;;2.63;2.30;;;;;;;17.75;83.64;100951.03;4993895;28;20185;-44
2022/06/09 11:32:38;;;;;;;3.63;2.22;;;;;;;17.67;84.02;100954.28;4994531;28;20221;-45
2022/06/09 11:35:15;;;;;;;2.25;1.70;;;;;;;17.89;82.82;100958.31;4993639;28;20246;-46
2022/06/09 11:37:53;;;;;;;1.33;1.23;;;;;;;17.89;82.89;100961.00;4994082;28;20243;-47
2022/06/09 11:40:24;;;;;;;1.35;1.25;;;;;;;18.52;82.47;100965.72;4994166;28;20648;-44
2022/06/09 11:43:16;;;;;;;1.85;1.63;;;;;;;19.11;79.51;100957.06;4993881;28;20648;-47
2022/06/09 11:45:44;;;;;;;2.47;1.83;;;;;;;19.19;78.78;100964.66;4993960;28;20182;-46
2022/06/09 11:48:22;;;;;;;2.03;1.70;;;;;;;19.56;78.49;100960.13;4993788;28;20170;-45
2022/06/09 11:50:49;;;;;;;2.95;2.00;;;;;;;19.18;78.28;100965.66;4994032;28;20618;-46